createdAt,value
2022-10-26T00:00:27.241Z,22.25
2022-10-26T00:02:56.058Z,19.77
2022-10-26T00:05:24.643Z,15.65
2022-10-26T00:07:52.712Z,17.70
2022-10-26T00:10:22.003Z,20.38
2022-10-26T00:12:51.530Z,21.13
2022-10-26T00:15:20.911Z,18.77
2022-10-26T00:17:49.317Z,21.52
2022-10-26T00:20:17.427Z,20.17
2022-10-26T00:22:45.269Z,24.65
2022-10-26T00:25:12.924Z,19.67
2022-10-26T00:27:40.277Z,17.95
2022-10-26T00:30:08.137Z,21.30
2022-10-26T00:32:36.106Z,22.83
2022-10-26T00:35:15.819Z,18.30
2022-10-26T00:37:56.327Z,17.42
2022-10-26T00:40:28.796Z,18.20
2022-10-26T00:42:56.480Z,17.65
2022-10-26T00:45:29.845Z,19.00
2022-10-26T00:48:07.756Z,17.70
2022-10-26T00:50:42.961Z,19.05
2022-10-26T00:53:11.628Z,19.40
2022-10-26T00:55:45.797Z,20.30
2022-10-26T00:58:13.404Z,20.15
2022-10-26T01:00:42.560Z,19.25
2022-10-26T01:03:11.129Z,18.20
2022-10-26T01:05:42.138Z,18.77
2022-10-26T01:08:10.342Z,21.08
2022-10-26T01:10:40.218Z,18.50
2022-10-26T01:13:07.730Z,16.77
2022-10-26T01:15:46.889Z,25.70
2022-10-26T01:18:30.042Z,23.10
2022-10-26T01:20:57.753Z,20.42
2022-10-26T01:24:02.892Z,18.98
2022-10-26T01:27:09.581Z,22.27
2022-10-26T01:30:09.640Z,20.48
2022-10-26T01:32:52.848Z,20.48
2022-10-26T01:36:01.006Z,23.20
2022-10-26T01:39:03.073Z,24.02
2022-10-26T01:41:31.138Z,25.90
2022-10-26T01:44:06.582Z,18.33
2022-10-26T01:46:41.013Z,23.15
2022-10-26T01:49:12.524Z,26.95
2022-10-26T01:51:43.450Z,20.02
2022-10-26T01:54:11.208Z,21.25
2022-10-26T01:56:45.162Z,21.00
2022-10-26T01:59:31.408Z,20.80
2022-10-26T02:02:18.707Z,22.42
2022-10-26T02:04:46.543Z,24.02
2022-10-26T02:07:52.088Z,22.15
2022-10-26T02:10:22.703Z,21.40
2022-10-26T02:13:14.006Z,22.05
2022-10-26T02:15:55.676Z,24.25
2022-10-26T02:18:38.534Z,26.98
2022-10-26T02:21:09.613Z,22.58
2022-10-26T02:23:40.730Z,22.83
2022-10-26T02:26:12.293Z,20.45
2022-10-26T02:28:47.454Z,26.15
2022-10-26T02:31:16.778Z,21.85
2022-10-26T02:36:31.070Z,18.00
2022-10-26T02:38:59.519Z,23.83
2022-10-26T02:41:29.039Z,18.45
2022-10-26T02:44:33.797Z,21.50
2022-10-26T02:47:01.577Z,16.35
2022-10-26T02:49:29.905Z,17.27
2022-10-26T02:52:11.371Z,19.80
2022-10-26T02:54:58.196Z,22.33
2022-10-26T02:57:35.222Z,22.20
2022-10-26T03:00:02.946Z,20.92
2022-10-26T03:02:30.846Z,24.67
2022-10-26T03:05:11.761Z,18.92
2022-10-26T03:07:39.550Z,21.52
2022-10-26T03:10:07.293Z,20.77
2022-10-26T03:12:35.232Z,20.15
2022-10-26T03:15:03.062Z,18.27
2022-10-26T03:17:30.785Z,14.40
2022-10-26T03:19:58.576Z,24.90
2022-10-26T03:22:26.307Z,21.00
2022-10-26T03:24:53.871Z,22.27
2022-10-26T03:27:21.594Z,21.05
2022-10-26T03:29:48.942Z,26.85
2022-10-26T03:32:16.609Z,25.52
2022-10-26T03:34:44.100Z,23.27
2022-10-26T03:37:12.421Z,20.17
2022-10-26T03:39:39.629Z,22.33
2022-10-26T03:42:07.231Z,15.80
2022-10-26T03:44:34.949Z,21.40
2022-10-26T03:47:02.741Z,19.00
2022-10-26T03:49:30.414Z,22.55
2022-10-26T03:51:58.201Z,19.90
2022-10-26T03:54:25.643Z,21.85
2022-10-26T03:56:55.156Z,18.33
2022-10-26T03:59:23.169Z,20.17
2022-10-26T04:01:52.879Z,20.92
2022-10-26T04:04:23.421Z,20.60
2022-10-26T04:07:59.338Z,25.02
2022-10-26T04:10:27.657Z,21.23
2022-10-26T04:12:56.022Z,16.40
2022-10-26T04:15:24.299Z,14.70
2022-10-26T04:18:00.878Z,19.92
2022-10-26T04:20:31.314Z,20.65
2022-10-26T04:23:01.245Z,19.52
2022-10-26T04:25:32.643Z,16.42
2022-10-26T04:28:02.123Z,16.60
2022-10-26T04:30:29.572Z,14.77
2022-10-26T04:32:57.151Z,13.32
2022-10-26T04:35:25.115Z,19.25
2022-10-26T04:37:52.660Z,20.30
2022-10-26T04:40:19.583Z,22.75
2022-10-26T04:42:48.034Z,34.63
2022-10-26T04:45:16.457Z,24.38
2022-10-26T04:47:43.743Z,28.13
2022-10-26T04:50:12.443Z,30.23
2022-10-26T04:52:40.292Z,33.78
2022-10-26T04:55:07.904Z,29.05
2022-10-26T04:57:35.813Z,29.35
2022-10-26T05:00:04.949Z,29.80
2022-10-26T05:02:32.105Z,27.48
2022-10-26T05:04:59.550Z,27.55
2022-10-26T05:07:27.042Z,29.00
2022-10-26T05:09:54.491Z,34.10
2022-10-26T05:12:21.487Z,22.90
2022-10-26T05:14:48.648Z,28.27
2022-10-26T05:17:15.950Z,30.55
2022-10-26T05:19:42.916Z,31.90
2022-10-26T05:22:11.228Z,35.88
2022-10-26T05:24:38.707Z,24.20
2022-10-26T05:27:05.617Z,33.35
2022-10-26T05:29:33.124Z,29.38
2022-10-26T05:32:00.427Z,24.75
2022-10-26T05:34:27.944Z,23.70
2022-10-26T05:36:55.403Z,29.00
2022-10-26T05:39:22.564Z,29.40
2022-10-26T05:41:49.924Z,26.15
2022-10-26T05:44:17.221Z,28.23
2022-10-26T05:46:44.762Z,28.35
2022-10-26T05:49:11.789Z,35.55
2022-10-26T05:51:39.696Z,27.40
2022-10-26T05:54:08.341Z,28.60
2022-10-26T05:56:40.391Z,24.50
2022-10-26T05:59:16.180Z,27.63
2022-10-26T06:01:46.411Z,28.08
2022-10-26T06:04:36.153Z,28.55
2022-10-26T06:07:04.863Z,25.77
2022-10-26T06:09:32.227Z,30.67
2022-10-26T06:12:01.805Z,29.33
2022-10-26T06:14:29.351Z,24.70
2022-10-26T06:17:08.484Z,29.77
2022-10-26T06:19:57.935Z,24.73
2022-10-26T06:23:00.598Z,23.85
2022-10-26T06:25:51.845Z,24.73
2022-10-26T06:28:38.995Z,22.42
2022-10-26T06:31:06.459Z,24.55
2022-10-26T06:33:34.239Z,21.27
2022-10-26T06:36:24.837Z,27.17
2022-10-26T06:39:01.467Z,29.90
2022-10-26T06:41:30.965Z,24.10
2022-10-26T06:43:58.427Z,22.63
2022-10-26T06:46:43.537Z,27.40
2022-10-26T06:49:17.000Z,27.50
2022-10-26T06:51:52.587Z,24.30
2022-10-26T06:54:33.214Z,27.60
2022-10-26T06:57:01.069Z,30.10
2022-10-26T06:59:38.837Z,27.98
2022-10-26T07:02:06.811Z,27.00
2022-10-26T07:04:34.548Z,28.17
2022-10-26T07:07:02.082Z,27.15
2022-10-26T07:09:29.459Z,28.20
2022-10-26T07:11:56.830Z,29.52
2022-10-26T07:14:24.359Z,23.77
2022-10-26T07:16:51.676Z,25.42
2022-10-26T07:19:18.893Z,28.00
2022-10-26T07:21:46.461Z,27.30
2022-10-26T07:24:13.431Z,23.58
2022-10-26T07:26:40.536Z,22.48
2022-10-26T07:29:07.499Z,23.63
2022-10-26T07:31:34.409Z,27.75
2022-10-26T07:34:01.794Z,28.25
2022-10-26T07:36:29.912Z,25.02
2022-10-26T07:38:57.062Z,28.17
2022-10-26T07:41:24.174Z,26.85
2022-10-26T07:43:51.513Z,22.77
2022-10-26T07:46:18.895Z,20.73
2022-10-26T07:48:45.946Z,27.17
2022-10-26T07:51:13.753Z,23.23
2022-10-26T07:53:40.938Z,20.92
2022-10-26T07:56:09.786Z,21.95
2022-10-26T07:58:36.864Z,20.70
2022-10-26T08:01:14.714Z,19.80
2022-10-26T08:03:42.237Z,19.02
2022-10-26T08:06:13.025Z,28.55
2022-10-26T08:08:44.859Z,24.85
2022-10-26T08:11:15.798Z,19.38
2022-10-26T08:13:43.418Z,20.50
2022-10-26T08:16:11.538Z,18.42
2022-10-26T08:18:39.164Z,20.30
2022-10-26T08:21:13.704Z,20.25
2022-10-26T08:23:43.132Z,17.85
2022-10-26T08:26:13.374Z,24.52
2022-10-26T08:28:40.848Z,22.52
2022-10-26T08:31:08.310Z,20.55
2022-10-26T08:33:35.214Z,25.50
2022-10-26T08:36:04.271Z,21.83
2022-10-26T08:38:33.848Z,16.80
2022-10-26T08:41:09.213Z,20.23
2022-10-26T08:43:49.949Z,15.52
2022-10-26T08:46:21.539Z,17.77
2022-10-26T08:48:54.313Z,22.23
2022-10-26T08:51:26.230Z,21.40
2022-10-26T08:54:05.944Z,17.50
2022-10-26T08:56:47.166Z,17.88
2022-10-26T08:59:40.827Z,18.75
2022-10-26T09:02:18.746Z,20.45
2022-10-26T09:04:46.354Z,14.27
2022-10-26T09:07:19.496Z,14.40
2022-10-26T09:10:08.598Z,16.73
2022-10-26T09:12:59.519Z,14.13
2022-10-26T09:15:45.811Z,14.73
2022-10-26T09:18:39.507Z,15.85
2022-10-26T09:21:17.157Z,14.80
2022-10-26T09:24:00.561Z,15.27
2022-10-26T09:26:39.073Z,13.80
2022-10-26T09:29:14.159Z,11.50
2022-10-26T09:31:44.997Z,14.50
2022-10-26T09:34:20.055Z,10.85
2022-10-26T09:36:47.486Z,12.52
2022-10-26T09:39:30.303Z,11.68
2022-10-26T09:42:13.129Z,12.65
2022-10-26T09:44:56.203Z,11.60
2022-10-26T09:47:51.305Z,12.30
2022-10-26T09:50:27.329Z,11.88
2022-10-26T09:52:54.455Z,9.05
2022-10-26T09:55:22.870Z,8.35
2022-10-26T09:57:52.900Z,18.63
2022-10-26T10:00:22.385Z,12.80
2022-10-26T10:02:57.940Z,10.25
2022-10-26T10:08:18.508Z,11.48
2022-10-26T10:10:54.305Z,9.60
2022-10-26T10:13:25.922Z,15.30
2022-10-26T10:16:27.169Z,8.60
2022-10-26T10:18:57.600Z,10.38
2022-10-26T10:21:45.466Z,10.20
2022-10-26T10:24:34.978Z,11.10
2022-10-26T10:27:16.035Z,7.53
2022-10-26T10:29:49.835Z,9.68
2022-10-26T10:32:24.458Z,9.48
2022-10-26T10:34:55.961Z,7.72
2022-10-26T10:37:33.511Z,9.90
2022-10-26T10:40:08.475Z,11.48
2022-10-26T10:42:38.322Z,8.65
2022-10-26T10:45:07.744Z,9.00
2022-10-26T10:47:36.826Z,7.18
2022-10-26T10:50:15.695Z,9.30
2022-10-26T10:52:43.388Z,10.23
2022-10-26T10:55:13.902Z,7.35
2022-10-26T10:58:00.498Z,8.40
2022-10-26T11:00:28.066Z,6.57
2022-10-26T11:03:19.983Z,7.10
2022-10-26T11:06:04.624Z,9.15
2022-10-26T11:08:53.971Z,7.65
2022-10-26T11:11:21.253Z,7.53
2022-10-26T11:14:06.558Z,6.43
2022-10-26T11:16:47.096Z,8.20
2022-10-26T11:19:29.291Z,4.90
2022-10-26T11:21:57.480Z,6.32
2022-10-26T11:24:32.098Z,5.38
2022-10-26T11:27:05.946Z,4.47
2022-10-26T11:29:50.754Z,6.25
2022-10-26T11:32:34.553Z,6.55
2022-10-26T11:35:11.060Z,7.03
2022-10-26T11:38:18.052Z,7.20
2022-10-26T11:40:58.906Z,8.10
2022-10-26T11:43:43.655Z,5.55
2022-10-26T11:46:20.296Z,4.88
2022-10-26T11:49:16.872Z,5.60
2022-10-26T11:51:56.054Z,5.80
2022-10-26T11:54:41.166Z,6.13
2022-10-26T11:57:11.051Z,5.75
2022-10-26T11:59:45.664Z,7.35
2022-10-26T12:02:18.325Z,4.82
2022-10-26T12:04:49.895Z,7.60
2022-10-26T12:07:28.952Z,7.07
2022-10-26T12:10:03.859Z,5.13
2022-10-26T12:12:39.129Z,7.28
2022-10-26T12:15:30.756Z,6.45
2022-10-26T12:18:56.577Z,7.47
2022-10-26T12:21:27.791Z,7.03
2022-10-26T12:23:54.949Z,5.10
2022-10-26T12:26:40.076Z,7.43
2022-10-26T12:29:07.563Z,6.55
2022-10-26T12:31:37.654Z,6.35
2022-10-26T12:34:10.913Z,4.82
2022-10-26T12:37:07.484Z,3.55
2022-10-26T12:39:40.485Z,4.90
2022-10-26T12:42:10.594Z,5.70
2022-10-26T12:44:41.295Z,5.07
2022-10-26T12:47:10.150Z,5.03
2022-10-26T12:50:19.829Z,5.00
2022-10-26T12:52:47.575Z,4.60
2022-10-26T12:55:34.030Z,4.88
2022-10-26T12:58:19.671Z,8.25
2022-10-26T13:00:58.095Z,4.75
2022-10-26T13:03:45.558Z,6.03
2022-10-26T13:06:33.785Z,7.20
2022-10-26T13:11:41.596Z,4.90
2022-10-26T13:14:26.069Z,6.65
2022-10-26T13:16:53.852Z,5.18
2022-10-26T13:19:43.033Z,5.18
2022-10-26T13:22:20.128Z,3.88
2022-10-26T13:25:01.900Z,7.20
2022-10-26T13:27:35.367Z,7.97
2022-10-26T13:30:05.512Z,5.25
2022-10-26T13:32:40.096Z,6.38
2022-10-26T13:35:15.035Z,3.95
2022-10-26T13:37:47.461Z,6.38
2022-10-26T13:40:18.624Z,5.03
2022-10-26T13:43:07.138Z,5.28
2022-10-26T13:48:27.326Z,5.95
2022-10-26T13:53:51.759Z,8.45
2022-10-26T13:56:22.013Z,4.45
2022-10-26T13:58:55.431Z,5.57
2022-10-26T14:01:26.372Z,6.90
2022-10-26T14:03:54.353Z,7.53
2022-10-26T14:10:01.648Z,9.05
2022-10-26T14:12:43.839Z,3.45
2022-10-26T14:15:32.931Z,4.10
2022-10-26T14:21:51.840Z,5.25
2022-10-26T14:24:50.034Z,4.28
2022-10-26T14:27:38.160Z,3.65
2022-10-26T14:30:29.193Z,6.57
2022-10-26T14:33:17.351Z,5.53
2022-10-26T14:35:52.090Z,4.65
2022-10-26T14:38:30.309Z,4.18
2022-10-26T14:40:58.534Z,5.72
2022-10-26T14:43:27.645Z,3.42
2022-10-26T14:45:56.973Z,6.53
2022-10-26T14:48:35.014Z,3.95
2022-10-26T14:51:21.399Z,4.15
2022-10-26T14:53:53.725Z,6.60
2022-10-26T14:56:36.460Z,5.88
2022-10-26T14:59:32.001Z,5.93
2022-10-26T15:04:41.158Z,6.38
2022-10-26T15:07:37.018Z,4.80
2022-10-26T15:10:29.691Z,4.63
2022-10-26T15:13:31.472Z,6.15
2022-10-26T15:16:18.610Z,4.82
2022-10-26T15:19:06.670Z,5.20
2022-10-26T15:25:21.475Z,6.85
2022-10-26T15:28:37.198Z,6.32
2022-10-26T15:31:06.263Z,7.65
2022-10-26T15:33:39.026Z,7.22
2022-10-26T15:36:26.362Z,6.32
2022-10-26T15:39:03.654Z,6.78
2022-10-26T15:42:11.408Z,8.07
2022-10-26T15:44:39.446Z,10.15
2022-10-26T15:47:24.470Z,7.93
2022-10-26T15:49:53.534Z,7.85
2022-10-26T15:52:22.826Z,9.07
2022-10-26T15:54:50.559Z,7.30
2022-10-26T15:57:27.186Z,9.40
2022-10-26T15:59:57.889Z,8.10
2022-10-26T16:02:28.640Z,7.93
2022-10-26T16:04:56.734Z,6.10
2022-10-26T16:07:29.965Z,8.20
2022-10-26T16:10:15.570Z,6.57
2022-10-26T16:12:55.301Z,7.35
2022-10-26T16:15:49.709Z,7.45
2022-10-26T16:18:31.391Z,6.18
2022-10-26T16:21:23.155Z,5.47
2022-10-26T16:23:57.196Z,6.63
2022-10-26T16:26:25.084Z,6.25
2022-10-26T16:28:53.200Z,4.05
2022-10-26T16:31:26.010Z,5.10
2022-10-26T16:34:00.268Z,8.02
2022-10-26T16:36:56.951Z,3.95
2022-10-26T16:39:27.518Z,7.15
2022-10-26T16:41:58.881Z,4.93
2022-10-26T16:44:32.518Z,5.15
2022-10-26T16:47:00.513Z,4.40
2022-10-26T16:49:29.392Z,6.60
2022-10-26T16:51:57.679Z,6.10
2022-10-26T16:54:31.058Z,6.82
2022-10-26T16:57:01.289Z,4.65
2022-10-26T16:59:29.703Z,4.07
2022-10-26T17:01:57.816Z,7.53
2022-10-26T17:04:32.494Z,7.65
2022-10-26T17:07:00.307Z,6.28
2022-10-26T17:09:35.066Z,7.93
2022-10-26T17:12:03.331Z,7.38
2022-10-26T17:14:42.007Z,5.32
2022-10-26T17:17:10.850Z,4.88
2022-10-26T17:19:38.898Z,3.85
2022-10-26T17:22:08.777Z,6.05
2022-10-26T17:24:36.374Z,6.72
2022-10-26T17:27:03.891Z,6.82
2022-10-26T17:29:31.362Z,4.75
2022-10-26T17:31:58.687Z,5.47
2022-10-26T17:34:25.987Z,5.43
2022-10-26T17:36:53.380Z,7.22
2022-10-26T17:39:20.947Z,5.85
2022-10-26T17:41:54.507Z,5.15
2022-10-26T17:44:24.667Z,8.30
2022-10-26T17:46:52.175Z,6.32
2022-10-26T17:49:24.791Z,5.70
2022-10-26T17:51:54.866Z,7.05
2022-10-26T17:54:26.340Z,5.40
2022-10-26T17:56:54.164Z,5.07
2022-10-26T17:59:27.397Z,4.10
2022-10-26T18:01:55.706Z,8.90
2022-10-26T18:04:24.015Z,7.22
2022-10-26T18:06:53.755Z,6.68
2022-10-26T18:09:28.852Z,9.13
2022-10-26T18:12:02.912Z,5.22
2022-10-26T18:14:38.624Z,6.47
2022-10-26T18:17:12.652Z,5.18
2022-10-26T18:19:45.435Z,7.03
2022-10-26T18:22:17.596Z,4.90
2022-10-26T18:25:05.687Z,9.00
2022-10-26T18:27:51.311Z,8.40
2022-10-26T18:30:18.819Z,4.55
2022-10-26T18:32:48.394Z,5.20
2022-10-26T18:35:16.855Z,6.32
2022-10-26T18:37:44.636Z,8.80
2022-10-26T18:40:12.816Z,6.20
2022-10-26T18:42:40.284Z,7.25
2022-10-26T18:45:07.890Z,10.65
2022-10-26T18:47:35.604Z,5.38
2022-10-26T18:50:03.279Z,6.25
2022-10-26T18:52:30.900Z,5.20
2022-10-26T18:54:58.964Z,4.70
2022-10-26T18:57:28.494Z,5.18
2022-10-26T19:00:19.153Z,6.90
2022-10-26T19:02:51.507Z,6.10
2022-10-26T19:05:22.569Z,6.10
2022-10-26T19:07:52.828Z,6.45
2022-10-26T19:10:48.573Z,7.38
2022-10-26T19:13:41.121Z,8.95
2022-10-26T19:16:33.561Z,8.07
2022-10-26T19:19:34.831Z,7.40
2022-10-26T19:22:02.856Z,6.25
2022-10-26T19:24:34.548Z,4.85
2022-10-26T19:27:02.743Z,5.18
2022-10-26T19:29:30.140Z,7.53
2022-10-26T19:31:57.910Z,7.63
2022-10-26T19:34:26.121Z,8.82
2022-10-26T19:36:53.692Z,4.57
2022-10-26T19:39:22.600Z,6.22
2022-10-26T19:41:50.106Z,7.00
2022-10-26T19:44:17.368Z,6.85
2022-10-26T19:46:47.369Z,6.32
2022-10-26T19:49:18.436Z,6.13
2022-10-26T19:51:48.217Z,6.10
2022-10-26T19:54:16.320Z,8.05
2022-10-26T19:56:43.717Z,7.70
2022-10-26T19:59:11.439Z,7.28
2022-10-26T20:01:42.916Z,6.55
2022-10-26T20:04:26.232Z,5.38
2022-10-26T20:06:57.155Z,8.02
2022-10-26T20:09:36.267Z,5.53
2022-10-26T20:12:26.043Z,7.28
2022-10-26T20:14:54.243Z,7.00
2022-10-26T20:17:23.974Z,6.30
2022-10-26T20:19:55.937Z,5.38
2022-10-26T20:22:24.052Z,5.22
2022-10-26T20:24:51.618Z,8.55
2022-10-26T20:27:18.947Z,5.85
2022-10-26T20:29:46.615Z,7.30
2022-10-26T20:32:15.382Z,7.78
2022-10-26T20:34:45.475Z,6.85
2022-10-26T20:37:14.056Z,8.52
2022-10-26T20:39:41.496Z,8.48
2022-10-26T20:42:24.267Z,8.80
2022-10-26T20:45:01.246Z,9.70
2022-10-26T20:47:29.001Z,6.57
2022-10-26T20:49:56.769Z,7.32
2022-10-26T20:52:36.394Z,8.05
2022-10-26T20:55:03.814Z,7.32
2022-10-26T20:57:35.217Z,6.45
2022-10-26T21:00:10.534Z,8.60
2022-10-26T21:02:37.909Z,11.00
2022-10-26T21:05:05.717Z,9.02
2022-10-26T21:07:33.088Z,8.23
2022-10-26T21:10:00.832Z,6.10
2022-10-26T21:12:28.167Z,8.45
2022-10-26T21:14:55.718Z,8.98
2022-10-26T21:17:23.596Z,7.50
2022-10-26T21:19:50.955Z,9.23
2022-10-26T21:22:18.482Z,11.63
2022-10-26T21:24:46.031Z,9.68
2022-10-26T21:27:13.217Z,8.88
2022-10-26T21:29:40.674Z,9.52
2022-10-26T21:32:08.242Z,12.52
2022-10-26T21:34:35.827Z,14.27
2022-10-26T21:37:03.261Z,14.30
2022-10-26T21:39:30.946Z,10.57
2022-10-26T21:41:58.473Z,8.23
2022-10-26T21:44:40.522Z,9.75
2022-10-26T21:47:09.386Z,8.80
2022-10-26T21:49:37.133Z,8.60
2022-10-26T21:52:04.633Z,10.35
2022-10-26T21:54:31.755Z,11.13
2022-10-26T21:56:59.466Z,8.88
2022-10-26T21:59:26.934Z,10.20
2022-10-26T22:01:54.678Z,10.65
2022-10-26T22:04:22.806Z,9.45
2022-10-26T22:07:08.877Z,10.55
2022-10-26T22:09:49.340Z,9.55
2022-10-26T22:12:25.916Z,9.05
2022-10-26T22:15:03.422Z,10.65
2022-10-26T22:17:31.480Z,11.95
2022-10-26T22:20:05.557Z,11.43
2022-10-26T22:22:39.799Z,9.65
2022-10-26T22:25:07.421Z,9.13
2022-10-26T22:27:34.894Z,12.02
2022-10-26T22:30:03.114Z,11.10
2022-10-26T22:32:33.614Z,12.45
2022-10-26T22:37:48.542Z,11.65
2022-10-26T22:40:15.703Z,10.15
2022-10-26T22:42:43.201Z,10.02
2022-10-26T22:45:13.888Z,12.85
2022-10-26T22:47:41.088Z,11.18
2022-10-26T22:50:08.584Z,10.48
2022-10-26T22:52:39.495Z,10.95
2022-10-26T22:55:08.710Z,14.52
2022-10-26T22:57:36.331Z,10.50
2022-10-26T23:00:07.731Z,12.02
2022-10-26T23:02:35.439Z,13.55
2022-10-26T23:05:03.276Z,15.50
2022-10-26T23:07:31.975Z,15.93
2022-10-26T23:09:59.780Z,13.10
2022-10-26T23:12:26.783Z,16.40
2022-10-26T23:14:53.803Z,16.10
2022-10-26T23:17:21.069Z,10.85
2022-10-26T23:19:48.651Z,13.65
2022-10-26T23:22:16.253Z,13.73
2022-10-26T23:24:43.343Z,15.88
2022-10-26T23:27:10.898Z,15.82
2022-10-26T23:29:38.489Z,16.52
2022-10-26T23:32:05.756Z,14.18
2022-10-26T23:34:32.786Z,14.77
2022-10-26T23:37:00.026Z,17.27
2022-10-26T23:39:27.057Z,14.60
2022-10-26T23:41:54.484Z,20.02
2022-10-26T23:44:22.043Z,18.63
2022-10-26T23:46:49.070Z,17.05
2022-10-26T23:49:16.667Z,14.73
2022-10-26T23:51:44.136Z,16.38
2022-10-26T23:54:11.591Z,14.50
2022-10-26T23:56:39.120Z,17.60
2022-10-26T23:59:08.818Z,14.05
